• Join FlightAware (Why Join?)
  • Login
  • US Flag 
01:56PM EST


 

Airport Tracker/Info


-or-


 

Live Flight TrackerFlight Track Log ✈ DAL6067 ✈ 03-May-2013 ✈ KBGR - KLGA

Flight Track Log - Related Links

Times and Time Zones

All times are in EDT time to prevent confusion due to time zone crossing. See the DAL6067 flight status page for this flight to view local times or setup timezone preferences in your user account.

Time Position Orientation Groundspeed Altitude Reporting Facility
EDT Latitude Longitude Course Direction KTS MPH feet Rate Location/Type
06:08AM 44.7364 -68.9039 235° Southwest 244 281 5,100  Level Boston Center
06:09AM 44.7042 -69.0108 247° West 257 296 7,600 2,580 Climbing Boston Center
06:10AM 44.6449 -69.3320 245° Southwest  Level FlightAware Approximate
06:10AM 44.6739 -69.1150 248° West 277 319 10,300  Level Boston Center
06:11AM 44.5989 -69.4702 245° Southwest  Level FlightAware Approximate
06:11AM 44.6394 -69.2278 247° West 299 344 12,000  Level Boston Center
06:12AM 44.5482 -69.6049 241° Southwest  Level FlightAware Approximate
06:13AM 44.4951 -69.7377 241° Southwest  Level FlightAware Approximate
06:13AM 44.6033 -69.3522 248° West 326 375 13,900  Level Boston Center
06:14AM 44.4405 -69.8690 235° Southwest  Level FlightAware Approximate
06:14AM 44.5572 -69.5033 247° West 346 398 16,000  Level Boston Center
06:15AM 44.5167 -69.6333 246° West 359 413 17,500 1,080 Climbing Boston Center
06:16AM 44.4647 -69.8106 248° West 373 429 18,500 1,080 Climbing Boston Center
06:17AM 44.4156 -69.9492 244° Southwest 387 445 19,900 1,380 Climbing Boston Center
06:18AM 44.3581 -70.0881 240° Southwest 404 465 21,300 1,320 Climbing Boston Center
06:19AM 44.3025 -70.2297 241° Southwest 410 472 22,600 1,260 Climbing Boston Center
06:20AM 44.2308 -70.4033 240° Southwest 422 486 24,200 1,320 Climbing Boston Center
06:21AM 44.1728 -70.5469 241° Southwest 428 493 25,600 1,320 Climbing Boston Center
06:22AM 44.1106 -70.6936 239° Southwest 428 493 26,900 1,320 Climbing Boston Center
06:23AM 44.0500 -70.8369 240° Southwest 433 498 28,300 1,200 Climbing Boston Center
06:24AM 43.9894 -70.9800 240° Southwest 433 498 29,600 1,320 Climbing Boston Center
06:25AM 43.9186 -71.1517 240° Southwest 433 498 31,300 1,200 Climbing Boston Center
06:26AM 43.8556 -71.2969 239° Southwest 433 498 32,000 300 Climbing Boston Center
06:27AM 43.8025 -71.4247 240° Southwest 438 504 32,000  Level Boston Center
06:28AM 43.7453 -71.5608 240° Southwest 431 496 32,000  Level Boston Center
06:29AM 43.6881 -71.6994 240° Southwest 431 496 32,000  Level Boston Center
06:30AM 43.6283 -71.8319 238° Southwest 421 484 32,000  Level Boston Center
06:31AM 43.5728 -71.9644 240° Southwest 416 479 32,000  Level Boston Center
06:32AM 43.5128 -72.1022 239° Southwest 416 479 32,000  Level Boston Center
06:33AM 43.4528 -72.2428 240° Southwest 421 484 32,000  Level Boston Center
06:34AM 43.3925 -72.3800 239° Southwest 421 484 32,000  Level Boston Center
06:35AM 43.3319 -72.5172 239° Southwest 426 490 32,000  Level Boston Center
06:36AM 43.2714 -72.6511 238° Southwest 426 490 32,000  Level Boston Center
06:37AM 43.2106 -72.7875 239° Southwest 426 490 32,000 -180 Level Boston Center
06:38AM 43.1497 -72.9239 239° Southwest 426 490 31,700 -840 Descending Boston Center
06:39AM 43.0906 -73.0569 239° Southwest 426 490 30,400 -1,200 Descending Boston Center
06:40AM 43.0294 -73.1928 238° Southwest 421 484 29,400 -1,200 Descending Boston Center
06:41AM 42.9658 -73.3311 238° Southwest 428 493 28,100 -1,920 Descending Boston Center
06:42AM 42.8936 -73.4803 237° Southwest 433 498 25,600 -2,220 Descending Boston Center
06:43AM 42.8319 -73.6208 239° Southwest 433 498 23,700 -1,740 Descending Boston Center
06:44AM 42.7556 -73.7436 230° Southwest 438 504 22,200 -1,560 Descending Boston Center
06:45AM 42.6406 -73.7836 194° South 398 458 20,600 -1,560 Descending Boston Center
06:46AM 42.5283 -73.7417 165° South 386 444 19,100 -1,260 Descending Boston Center
06:47AM 42.4289 -73.7086 166° South 396 456 18,100 -600 Descending Boston Center
06:48AM 42.3144 -73.6894 173° South 403 464 18,000 -60 Descending Boston Center
06:49AM 42.2061 -73.6733 174° South 396 456 18,000  Level Boston Center
06:50AM 42.0981 -73.6544 173° South 391 450 18,000  Level Boston Center
06:51AM 41.9872 -73.6661 184° South 391 450 18,000  Level Boston Center
06:52AM 41.8747 -73.6864 188° South 401 461 18,000 -420 Level Boston Center
06:53AM 41.7786 -73.7067 189° South 411 473 17,200 -1,800 Descending Boston Center
06:54AM 41.6658 -73.7294 189° South 385 443 14,500 -2,100 Descending Boston Center
06:55AM 41.5500 -73.7500 188° South 325 374 12,600 -1,800 Descending New York TRACON
06:56AM 41.4667 -73.7667 189° South 308 354 10,500 -1,800 Descending New York TRACON
06:57AM 41.3833 -73.7833 189° South 294 338 9,200 -1,200 Descending New York TRACON
06:58AM 41.3000 -73.7667 171° South 291 335 8,100 -660 Descending New York TRACON
06:59AM 41.2333 -73.7500 169° South 298 343 7,900 -600 Descending New York TRACON
07:00AM 41.1500 -73.7833 197° South 286 329 7,000 -1,200 Descending New York TRACON
07:01AM 41.0833 -73.8167 201° Southwest 283 326 5,600 -1,440 Descending New York TRACON
07:02AM 41.0167 -73.8500 201° Southwest 272 313 4,300 -900 Descending New York TRACON
07:03AM 40.9667 -73.8833 207° Southwest 261 300 4,000 -180 Descending New York TRACON
07:04AM 40.8833 -73.9333 204° Southwest 276 318 4,000  Level New York TRACON
07:05AM 40.8167 -73.9667 201° Southwest 274 315 4,000  Level New York TRACON
07:06AM 40.7667 -74.0167 217° Southwest 274 315 4,000 -180 Level New York TRACON
07:07AM 40.7000 -74.0333 191° South 203 234 3,700 -540 Descending New York TRACON
07:08AM 40.6667 -74.0000 143° Southeast 173 199 3,000 -900 Descending New York TRACON
07:09AM 40.6833 -73.9500 66° East 176 203 2,100 -900 Descending New York TRACON
07:10AM 40.7167 -73.9333 21° North 134 154 1,400 -780 Descending New York TRACON
07:11AM 40.7500 -73.9000 37° Northeast 131 151 700 -780 Descending New York TRACON